createdAt,value
2023-11-23T00:31:24.219Z,9.50
2023-11-23T00:33:51.054Z,9.60
2023-11-23T00:36:17.895Z,9.50
2023-11-23T00:38:45.004Z,9.60
2023-11-23T00:41:11.845Z,0.00
2023-11-23T00:43:38.716Z,9.40
2023-11-23T00:46:05.994Z,9.30
2023-11-23T00:48:33.315Z,9.20
2023-11-23T00:51:00.280Z,9.20
2023-11-23T00:53:27.151Z,9.40
2023-11-23T00:55:58.088Z,9.30
2023-11-23T00:58:25.317Z,9.50
2023-11-23T01:00:52.109Z,9.30
2023-11-23T01:03:19.655Z,9.10
2023-11-23T01:05:46.660Z,9.10
2023-11-23T01:08:15.787Z,9.30
2023-11-23T01:22:38.340Z,9.20
2023-11-23T01:25:10.127Z,9.10
2023-11-23T01:27:37.534Z,9.10
2023-11-23T01:30:05.531Z,8.90
2023-11-23T01:32:33.269Z,9.00
2023-11-23T01:35:00.204Z,8.80
2023-11-23T01:37:27.396Z,8.70
2023-11-23T01:39:54.233Z,8.80
2023-11-23T01:42:21.425Z,8.90
2023-11-23T01:44:49.048Z,9.00
2023-11-23T01:47:16.973Z,9.00
2023-11-23T01:49:46.520Z,9.00
2023-11-23T01:52:13.661Z,0.00
2023-11-23T01:54:41.669Z,9.00
2023-11-23T01:57:09.561Z,8.90
2023-11-23T01:59:37.197Z,8.70
2023-11-23T02:02:06.101Z,8.80
2023-11-23T02:04:33.424Z,8.80
2023-11-23T02:07:01.213Z,8.90
2023-11-23T02:09:29.923Z,8.80
2023-11-23T02:11:57.256Z,8.90
2023-11-23T02:14:25.210Z,8.90
2023-11-23T02:16:52.133Z,8.80
2023-11-23T02:19:19.063Z,8.90
2023-11-23T02:21:45.911Z,8.80
2023-11-23T02:24:13.100Z,8.90
2023-11-23T02:26:39.977Z,8.70
2023-11-23T02:29:06.921Z,8.60
2023-11-23T02:31:34.239Z,8.70
2023-11-23T02:34:01.635Z,8.50
2023-11-23T02:36:28.534Z,8.50
2023-11-23T02:38:55.371Z,8.40
2023-11-23T02:41:22.319Z,8.60
2023-11-23T02:43:50.056Z,8.60
2023-11-23T02:46:16.961Z,8.60
2023-11-23T02:48:44.121Z,8.70
2023-11-23T02:51:11.026Z,8.60
2023-11-23T02:53:44.955Z,8.70
2023-11-23T02:56:12.235Z,8.60
2023-11-23T02:58:43.004Z,8.50
2023-11-23T03:01:10.079Z,8.50
2023-11-23T03:03:37.044Z,8.60
2023-11-23T03:06:04.055Z,8.60
2023-11-23T03:08:30.929Z,8.60
2023-11-23T03:10:57.772Z,8.60
2023-11-23T03:13:26.103Z,8.60
2023-11-23T03:15:53.099Z,0.00
2023-11-23T03:18:20.154Z,8.70
2023-11-23T03:20:47.331Z,8.60
2023-11-23T03:23:14.481Z,8.70
2023-11-23T03:25:41.366Z,8.70
2023-11-23T03:28:08.624Z,8.60
2023-11-23T03:30:37.073Z,8.30
2023-11-23T03:33:04.688Z,8.40
2023-11-23T03:35:32.485Z,8.10
2023-11-23T03:37:59.486Z,8.20
2023-11-23T03:40:26.296Z,8.10
2023-11-23T03:42:53.089Z,8.20
2023-11-23T03:45:19.942Z,8.10
2023-11-23T03:47:48.360Z,8.10
2023-11-23T03:50:16.196Z,8.00
2023-11-23T03:52:43.029Z,7.80
2023-11-23T03:55:09.912Z,7.80
2023-11-23T03:57:39.303Z,7.80
2023-11-23T04:00:07.815Z,7.90
2023-11-23T04:17:18.058Z,8.20
2023-11-23T04:19:44.915Z,8.40
2023-11-23T04:22:12.738Z,8.40
2023-11-23T04:24:41.045Z,8.40
2023-11-23T04:27:07.973Z,8.40
2023-11-23T04:29:34.809Z,8.50
2023-11-23T04:32:01.618Z,8.40
2023-11-23T04:34:28.800Z,8.50
2023-11-23T04:36:55.666Z,8.50
2023-11-23T04:39:22.647Z,8.40
2023-11-23T04:41:49.592Z,8.40
2023-11-23T04:44:16.910Z,8.40
2023-11-23T04:46:43.953Z,8.50
2023-11-23T04:49:10.709Z,8.20
2023-11-23T04:51:38.587Z,8.40
2023-11-23T04:54:05.725Z,8.20
2023-11-23T04:56:33.023Z,8.30
2023-11-23T04:59:00.063Z,8.10
2023-11-23T05:01:26.991Z,8.20
2023-11-23T05:03:54.496Z,8.10
2023-11-23T05:06:21.792Z,8.20
2023-11-23T05:08:48.786Z,8.20
2023-11-23T05:11:15.678Z,8.30
2023-11-23T05:13:42.604Z,8.30
2023-11-23T05:16:09.806Z,8.10
2023-11-23T05:18:36.705Z,8.10
2023-11-23T05:21:05.465Z,8.10
2023-11-23T05:23:32.361Z,8.10
2023-11-23T05:25:59.246Z,7.90
2023-11-23T05:28:26.714Z,7.80
2023-11-23T05:30:53.567Z,7.80
2023-11-23T05:33:22.203Z,7.80
2023-11-23T05:35:50.825Z,7.70
2023-11-23T05:38:17.678Z,7.80
2023-11-23T05:40:44.520Z,7.80
2023-11-23T05:43:11.385Z,7.80
2023-11-23T05:45:38.216Z,8.00
2023-11-23T05:48:05.498Z,8.10
2023-11-23T05:50:32.411Z,8.00
2023-11-23T05:52:59.225Z,8.20
2023-11-23T05:55:26.142Z,8.20
2023-11-23T05:57:52.958Z,8.30
2023-11-23T06:00:19.907Z,0.00
2023-11-23T06:02:48.502Z,8.30
2023-11-23T06:05:16.449Z,8.10
2023-11-23T06:07:43.380Z,8.20
2023-11-23T06:10:12.897Z,8.10
2023-11-23T06:12:39.832Z,8.20
2023-11-23T06:15:08.655Z,8.10
2023-11-23T06:17:35.973Z,8.10
2023-11-23T06:20:05.431Z,7.90
2023-11-23T06:22:32.849Z,8.10
2023-11-23T06:24:59.672Z,8.00
2023-11-23T06:27:28.049Z,7.90
2023-11-23T06:29:54.980Z,7.90
2023-11-23T06:32:21.852Z,7.90
2023-11-23T06:34:48.764Z,8.00
2023-11-23T06:37:15.603Z,7.90
2023-11-23T06:39:43.397Z,7.80
2023-11-23T06:42:10.272Z,7.70
2023-11-23T06:44:37.207Z,7.50
2023-11-23T06:47:05.346Z,7.30
2023-11-23T06:49:33.316Z,7.40
2023-11-23T06:52:00.119Z,7.70
2023-11-23T06:54:27.207Z,7.50
2023-11-23T06:56:54.128Z,7.60
2023-11-23T06:59:20.945Z,7.80
2023-11-23T07:01:47.828Z,7.70
2023-11-23T07:04:15.278Z,7.90
2023-11-23T07:06:42.699Z,8.00
2023-11-23T07:09:10.236Z,8.00
2023-11-23T07:11:37.562Z,8.00
2023-11-23T07:14:05.175Z,8.00
2023-11-23T07:16:32.652Z,7.90
2023-11-23T07:18:59.530Z,8.10
2023-11-23T07:21:26.567Z,8.20
2023-11-23T07:23:53.438Z,8.10
2023-11-23T07:26:20.549Z,8.20
2023-11-23T07:28:47.331Z,8.20
2023-11-23T07:31:14.165Z,8.20
2023-11-23T07:33:41.124Z,8.20
2023-11-23T07:36:08.509Z,8.20
2023-11-23T07:38:35.380Z,8.30
2023-11-23T07:41:02.637Z,8.40
2023-11-23T07:43:32.489Z,8.40
2023-11-23T07:46:00.949Z,8.50
2023-11-23T07:48:28.093Z,8.60
2023-11-23T07:50:54.952Z,8.60
2023-11-23T07:53:23.307Z,8.70
2023-11-23T07:55:50.534Z,8.60
2023-11-23T07:58:17.388Z,8.70
2023-11-23T08:00:44.563Z,8.80
2023-11-23T08:03:11.644Z,8.80
2023-11-23T08:05:38.600Z,8.70
2023-11-23T08:08:05.720Z,8.80
2023-11-23T08:10:32.481Z,9.00
2023-11-23T08:12:59.739Z,9.00
2023-11-23T08:15:27.035Z,9.00
2023-11-23T08:18:01.787Z,9.20
2023-11-23T08:20:34.998Z,9.20
2023-11-23T08:23:01.973Z,9.20
2023-11-23T08:25:28.794Z,9.40
2023-11-23T08:27:55.715Z,9.30
2023-11-23T08:30:23.557Z,9.40
2023-11-23T08:32:50.676Z,9.40
2023-11-23T08:35:17.448Z,9.40
2023-11-23T08:37:44.336Z,9.50
2023-11-23T08:40:11.529Z,9.50
2023-11-23T08:42:38.466Z,9.50
2023-11-23T08:45:05.996Z,9.60
2023-11-23T08:47:32.809Z,9.70
2023-11-23T08:49:59.686Z,9.70
2023-11-23T08:52:26.630Z,9.80
2023-11-23T08:54:53.443Z,9.80
2023-11-23T08:57:20.383Z,9.90
2023-11-23T08:59:47.284Z,10.00
2023-11-23T09:02:20.406Z,10.10
2023-11-23T09:04:49.637Z,10.10
2023-11-23T09:07:17.337Z,10.20
2023-11-23T09:09:44.277Z,10.20
2023-11-23T09:12:11.163Z,10.30
2023-11-23T09:14:46.816Z,10.40
2023-11-23T09:17:17.101Z,10.40
2023-11-23T09:19:44.120Z,10.50
2023-11-23T09:22:11.987Z,10.60
2023-11-23T09:24:39.984Z,10.60
2023-11-23T09:27:11.326Z,10.60
2023-11-23T09:29:38.450Z,10.60
2023-11-23T09:32:06.573Z,10.60
2023-11-23T09:34:33.664Z,10.80
2023-11-23T09:37:00.489Z,10.80
2023-11-23T09:39:27.624Z,10.90
2023-11-23T09:41:58.642Z,10.90
2023-11-23T09:44:30.465Z,11.00
2023-11-23T09:46:57.954Z,11.10
2023-11-23T09:49:26.034Z,11.20
2023-11-23T09:51:56.847Z,11.20
2023-11-23T09:54:27.667Z,11.30
2023-11-23T09:56:54.856Z,11.50
2023-11-23T09:59:21.644Z,11.50
2023-11-23T10:01:52.807Z,11.70
2023-11-23T10:04:19.894Z,11.70
2023-11-23T10:06:47.404Z,11.90
2023-11-23T10:09:18.212Z,11.80
2023-11-23T10:11:46.798Z,11.80
2023-11-23T10:14:13.858Z,12.00
2023-11-23T10:16:40.750Z,12.10
2023-11-23T10:19:09.648Z,12.20
2023-11-23T10:21:36.556Z,12.40
2023-11-23T10:24:09.184Z,12.40
2023-11-23T10:26:36.385Z,12.50
2023-11-23T10:29:03.713Z,12.70
2023-11-23T10:31:31.992Z,12.80
2023-11-23T10:34:00.085Z,12.90
2023-11-23T10:36:29.066Z,12.90
2023-11-23T10:39:01.026Z,13.00
2023-11-23T10:41:28.270Z,13.00
2023-11-23T10:43:55.747Z,13.10
2023-11-23T10:46:24.893Z,13.00
2023-11-23T10:48:53.363Z,13.30
2023-11-23T10:51:25.265Z,13.20
2023-11-23T10:53:52.225Z,13.30
2023-11-23T10:56:23.711Z,13.40
2023-11-23T10:58:54.086Z,13.40
2023-11-23T11:01:24.506Z,13.50
2023-11-23T11:03:52.197Z,13.50
2023-11-23T11:06:21.843Z,13.60
2023-11-23T11:08:50.193Z,13.60
2023-11-23T11:11:24.971Z,13.60
2023-11-23T11:14:03.828Z,13.70
2023-11-23T11:16:40.370Z,13.70
2023-11-23T11:19:08.934Z,13.70
2023-11-23T11:21:45.688Z,13.70
2023-11-23T11:24:24.872Z,13.80
2023-11-23T11:26:51.804Z,13.80
2023-11-23T11:29:18.651Z,13.80
2023-11-23T11:31:50.660Z,13.90
2023-11-23T11:34:22.295Z,13.90
2023-11-23T11:37:02.498Z,13.90
2023-11-23T11:39:38.745Z,13.90
2023-11-23T11:42:06.790Z,13.90
2023-11-23T11:44:35.293Z,14.00
2023-11-23T11:47:04.333Z,13.90
2023-11-23T11:49:31.638Z,14.00
2023-11-23T11:51:58.762Z,14.00
2023-11-23T11:54:26.525Z,14.10
2023-11-23T11:56:54.287Z,14.10
2023-11-23T11:59:22.676Z,14.20
2023-11-23T12:01:50.465Z,14.10
2023-11-23T12:04:21.522Z,14.20
2023-11-23T12:06:52.238Z,14.30
2023-11-23T12:09:23.253Z,14.30
2023-11-23T12:12:11.360Z,14.40
2023-11-23T12:14:38.676Z,14.40
2023-11-23T12:17:13.186Z,14.40
2023-11-23T12:19:54.224Z,14.50
2023-11-23T12:22:25.867Z,14.50
2023-11-23T12:24:53.821Z,14.50
2023-11-23T12:27:23.666Z,14.60
2023-11-23T12:29:50.771Z,14.50
2023-11-23T12:32:18.162Z,14.50
2023-11-23T12:34:45.223Z,14.50
2023-11-23T12:37:12.076Z,14.50
2023-11-23T12:39:39.079Z,14.60
2023-11-23T12:42:06.216Z,14.60
2023-11-23T12:44:36.557Z,14.70
2023-11-23T12:47:04.182Z,14.70
2023-11-23T12:49:31.216Z,14.80
2023-11-23T12:51:58.777Z,14.70
2023-11-23T12:54:26.498Z,14.80
2023-11-23T12:56:53.694Z,14.70
2023-11-23T12:59:20.985Z,14.90
2023-11-23T13:01:48.036Z,14.80
2023-11-23T13:04:15.515Z,14.80
2023-11-23T13:06:42.993Z,14.80
2023-11-23T13:09:13.817Z,14.70
2023-11-23T13:11:41.118Z,14.80
2023-11-23T13:14:08.775Z,14.80
2023-11-23T13:16:36.910Z,14.80
2023-11-23T13:19:16.206Z,14.80
2023-11-23T13:21:51.713Z,14.80
2023-11-23T13:24:18.599Z,14.80
2023-11-23T13:26:45.434Z,14.80
2023-11-23T13:29:12.310Z,14.80
2023-11-23T13:31:39.998Z,14.80
2023-11-23T13:34:08.889Z,14.80
2023-11-23T13:36:36.889Z,14.80
2023-11-23T13:39:04.618Z,14.90
2023-11-23T13:41:33.196Z,14.80
2023-11-23T13:44:00.374Z,14.70
2023-11-23T13:46:27.440Z,14.80
2023-11-23T13:48:54.685Z,14.80
2023-11-23T13:51:23.953Z,14.80
2023-11-23T13:53:51.543Z,14.80
2023-11-23T13:56:18.459Z,14.80
2023-11-23T13:58:45.326Z,14.60
2023-11-23T14:01:16.718Z,14.60
2023-11-23T14:03:43.887Z,14.60
2023-11-23T14:06:12.837Z,14.50
2023-11-23T14:08:39.828Z,14.60
2023-11-23T14:11:07.255Z,14.40
2023-11-23T14:13:34.244Z,14.30
2023-11-23T14:16:01.251Z,14.30
2023-11-23T14:18:30.128Z,14.20
2023-11-23T14:20:57.129Z,14.20
2023-11-23T14:23:23.994Z,14.20
2023-11-23T14:25:51.360Z,14.10
2023-11-23T14:28:18.811Z,14.10
2023-11-23T14:30:46.792Z,14.10
2023-11-23T14:33:17.221Z,14.00
2023-11-23T14:35:52.056Z,14.00
2023-11-23T14:38:19.939Z,14.10
2023-11-23T14:40:47.774Z,14.00
2023-11-23T14:43:19.339Z,14.10
2023-11-23T14:45:46.786Z,14.00
2023-11-23T14:48:14.414Z,14.00
2023-11-23T14:50:42.640Z,14.00
2023-11-23T14:53:09.548Z,14.00
2023-11-23T14:55:36.543Z,13.90
2023-11-23T14:58:03.453Z,14.00
2023-11-23T15:00:33.618Z,13.90
2023-11-23T15:03:00.704Z,13.90
2023-11-23T15:05:27.633Z,13.80
2023-11-23T15:07:54.561Z,13.80
2023-11-23T15:10:21.984Z,13.80
2023-11-23T15:12:52.801Z,13.70
2023-11-23T15:15:21.121Z,13.70
2023-11-23T15:17:50.038Z,13.80
2023-11-23T15:20:17.760Z,13.70
2023-11-23T15:22:44.736Z,13.60
2023-11-23T15:25:12.948Z,13.70
2023-11-23T15:27:41.343Z,13.60
2023-11-23T15:30:10.729Z,13.60
2023-11-23T15:32:41.142Z,13.60
2023-11-23T15:35:12.516Z,13.60
2023-11-23T15:37:40.313Z,13.40
2023-11-23T15:40:10.251Z,13.50
2023-11-23T15:42:39.849Z,13.40
2023-11-23T15:45:07.476Z,13.40
2023-11-23T15:47:34.514Z,13.40
2023-11-23T15:50:01.514Z,13.30
2023-11-23T15:52:29.116Z,13.30
2023-11-23T15:54:56.992Z,13.30
2023-11-23T15:57:23.983Z,13.30
2023-11-23T15:59:50.893Z,13.30
2023-11-23T16:02:18.396Z,13.10
2023-11-23T16:04:45.234Z,13.10
2023-11-23T16:07:12.268Z,13.10
2023-11-23T16:09:39.114Z,13.00
2023-11-23T16:12:06.116Z,13.00
2023-11-23T16:14:35.364Z,13.00
2023-11-23T16:17:03.472Z,12.90
2023-11-23T16:19:30.675Z,12.90
2023-11-23T16:21:57.517Z,13.00
2023-11-23T16:24:24.419Z,12.90
2023-11-23T16:26:51.192Z,12.90
2023-11-23T16:29:19.198Z,12.90
2023-11-23T16:31:47.181Z,12.80
2023-11-23T16:34:16.208Z,12.80
2023-11-23T16:36:44.333Z,12.50
2023-11-23T16:39:16.864Z,12.40
2023-11-23T16:41:44.935Z,12.00
2023-11-23T16:44:13.675Z,11.80
2023-11-23T16:46:42.705Z,11.80
2023-11-23T16:49:11.025Z,11.70
2023-11-23T16:51:39.173Z,11.80
2023-11-23T16:54:07.190Z,11.80
2023-11-23T16:56:34.325Z,11.80
2023-11-23T16:59:01.422Z,11.90
2023-11-23T17:01:29.102Z,12.00
2023-11-23T17:03:57.003Z,11.80
2023-11-23T17:06:24.688Z,11.90
2023-11-23T17:08:52.172Z,11.80
2023-11-23T17:11:21.863Z,11.70
2023-11-23T17:13:50.369Z,11.70
2023-11-23T17:16:17.964Z,11.70
2023-11-23T17:18:45.020Z,11.60
2023-11-23T17:21:12.217Z,11.40
2023-11-23T17:23:39.200Z,11.00
2023-11-23T17:26:10.069Z,10.90
2023-11-23T17:28:37.177Z,10.80
2023-11-23T17:31:06.442Z,10.70
2023-11-23T17:33:34.185Z,10.60
2023-11-23T17:36:01.189Z,10.60
2023-11-23T17:38:28.532Z,10.70
2023-11-23T17:40:55.344Z,10.70
2023-11-23T17:43:22.214Z,10.70
2023-11-23T17:45:50.583Z,10.60
2023-11-23T17:48:17.684Z,10.70
2023-11-23T17:50:44.996Z,0.00
2023-11-23T17:53:12.943Z,10.80
2023-11-23T17:55:39.972Z,10.80
2023-11-23T17:58:10.041Z,10.80
2023-11-23T18:00:38.596Z,10.80
2023-11-23T18:03:05.658Z,10.60
2023-11-23T18:05:33.240Z,10.50
2023-11-23T18:08:00.102Z,10.50
2023-11-23T18:10:26.901Z,10.50
2023-11-23T18:12:53.808Z,10.40
2023-11-23T18:15:21.966Z,10.40
2023-11-23T18:17:49.628Z,10.50
2023-11-23T18:20:17.526Z,10.60
2023-11-23T18:22:44.467Z,10.60
2023-11-23T18:25:11.324Z,10.60
2023-11-23T18:27:38.397Z,10.60
2023-11-23T18:30:05.918Z,10.60
2023-11-23T18:32:33.309Z,10.70
2023-11-23T18:35:02.217Z,10.60
2023-11-23T18:37:29.443Z,10.60
2023-11-23T18:39:57.009Z,10.60
2023-11-23T18:42:24.316Z,10.50
2023-11-23T18:44:51.291Z,10.60
2023-11-23T18:47:20.162Z,10.60
2023-11-23T18:49:51.520Z,10.60
2023-11-23T18:52:18.400Z,10.60
2023-11-23T18:54:46.020Z,10.60
2023-11-23T18:57:13.053Z,10.60
2023-11-23T18:59:39.814Z,10.60
2023-11-23T19:02:07.100Z,10.50
2023-11-23T19:04:34.141Z,10.40
2023-11-23T19:07:01.029Z,10.40
2023-11-23T19:09:28.488Z,10.50
2023-11-23T19:11:57.679Z,10.40
2023-11-23T19:14:24.615Z,10.50
2023-11-23T19:16:52.174Z,10.50
2023-11-23T19:19:19.338Z,10.50
2023-11-23T19:21:46.694Z,10.50
2023-11-23T19:24:14.564Z,10.50
2023-11-23T19:26:41.914Z,10.60
2023-11-23T19:29:11.176Z,10.50
2023-11-23T19:31:38.727Z,10.40
2023-11-23T19:34:07.160Z,10.50
2023-11-23T19:36:35.260Z,10.50
2023-11-23T19:39:02.556Z,10.40
2023-11-23T19:41:32.859Z,10.40
2023-11-23T19:43:59.935Z,10.40
2023-11-23T19:46:29.127Z,10.40
2023-11-23T19:48:56.234Z,10.40
2023-11-23T19:51:30.323Z,10.40
2023-11-23T19:53:58.159Z,10.40
2023-11-23T19:56:26.057Z,10.30
2023-11-23T19:58:53.501Z,10.30
2023-11-23T20:01:20.479Z,10.30
2023-11-23T20:03:47.414Z,10.30
2023-11-23T20:06:14.399Z,10.20
2023-11-23T20:08:42.603Z,10.30
2023-11-23T20:11:09.612Z,10.20
2023-11-23T20:13:39.929Z,10.20
2023-11-23T20:16:11.344Z,10.30
2023-11-23T20:18:42.477Z,10.20
2023-11-23T20:21:12.431Z,10.20
2023-11-23T20:23:39.626Z,10.20
2023-11-23T20:26:06.638Z,10.20
2023-11-23T20:28:33.535Z,10.20
2023-11-23T20:31:00.784Z,10.20
2023-11-23T20:33:27.795Z,10.20
2023-11-23T20:35:54.535Z,10.20
2023-11-23T20:38:21.440Z,10.20
2023-11-23T20:40:48.292Z,10.20
2023-11-23T20:43:15.300Z,10.20
2023-11-23T20:45:42.406Z,10.20
2023-11-23T20:48:09.485Z,10.20
2023-11-23T20:50:37.941Z,10.10
2023-11-23T20:53:05.547Z,10.10
2023-11-23T20:55:33.560Z,10.10
2023-11-23T20:58:00.835Z,10.00
2023-11-23T21:00:28.607Z,9.80
2023-11-23T21:02:56.241Z,9.80
2023-11-23T21:05:23.813Z,9.80
2023-11-23T21:07:52.945Z,9.90
2023-11-23T21:10:20.902Z,0.00
2023-11-23T21:12:47.775Z,9.80
2023-11-23T21:15:14.694Z,9.60
2023-11-23T21:17:42.201Z,9.60
2023-11-23T21:20:10.408Z,9.60
2023-11-23T21:22:37.254Z,9.60
2023-11-23T21:25:04.310Z,9.60
2023-11-23T21:27:38.246Z,9.60
2023-11-23T21:30:09.271Z,9.50
2023-11-23T21:32:36.892Z,9.50
2023-11-23T21:35:04.566Z,9.30
2023-11-23T21:37:31.757Z,9.30
2023-11-23T21:39:58.861Z,9.30
2023-11-23T21:42:25.835Z,9.20
2023-11-23T21:44:52.759Z,9.20
2023-11-23T21:47:19.921Z,9.30
2023-11-23T21:49:47.150Z,9.20
2023-11-23T21:52:13.943Z,9.40
2023-11-23T21:54:50.096Z,9.20
2023-11-23T21:57:22.146Z,9.20
2023-11-23T21:59:48.995Z,9.20
2023-11-23T22:02:16.051Z,9.20
2023-11-23T22:04:45.774Z,9.00
2023-11-23T22:07:12.815Z,9.10
2023-11-23T22:09:39.498Z,9.10
2023-11-23T22:12:06.771Z,9.00
2023-11-23T22:14:33.714Z,9.00
2023-11-23T22:17:00.875Z,8.80
2023-11-23T22:19:27.925Z,8.50
2023-11-23T22:21:55.000Z,8.40
2023-11-23T22:24:21.906Z,8.50
2023-11-23T22:26:49.245Z,8.40
2023-11-23T22:29:16.180Z,8.60
2023-11-23T22:31:44.362Z,8.50
2023-11-23T22:34:12.151Z,8.50
2023-11-23T22:36:39.696Z,8.50
2023-11-23T22:39:07.089Z,8.30
2023-11-23T22:41:34.230Z,8.30
2023-11-23T22:44:01.155Z,8.50
2023-11-23T22:46:28.194Z,8.30
2023-11-23T22:48:55.059Z,8.40
2023-11-23T22:51:21.998Z,8.40
2023-11-23T22:53:48.951Z,8.40
2023-11-23T22:56:16.247Z,8.70
2023-11-23T22:58:45.996Z,8.60
2023-11-23T23:01:12.883Z,8.70
2023-11-23T23:03:41.126Z,8.70
2023-11-23T23:06:08.992Z,8.60
2023-11-23T23:08:35.927Z,8.50
2023-11-23T23:11:02.785Z,8.60
2023-11-23T23:13:29.640Z,8.60
2023-11-23T23:15:56.505Z,8.50
2023-11-23T23:18:23.841Z,8.40
2023-11-23T23:20:53.954Z,8.50
2023-11-23T23:23:20.879Z,8.50
2023-11-23T23:25:49.805Z,8.50
2023-11-23T23:28:26.073Z,8.50
2023-11-23T23:30:58.800Z,8.30
2023-11-23T23:33:25.824Z,8.40
2023-11-23T23:35:53.408Z,8.30
2023-11-23T23:38:20.498Z,8.20
2023-11-23T23:40:50.997Z,8.10
2023-11-23T23:43:18.622Z,8.00
2023-11-23T23:45:45.852Z,7.70
2023-11-23T23:48:12.802Z,7.80
2023-11-23T23:50:41.567Z,7.60
2023-11-23T23:53:08.640Z,7.60
2023-11-23T23:55:35.611Z,7.70
2023-11-23T23:58:05.234Z,7.70
